• Join FlightAware (Why Join?)
  • Login
  • US Flag 
08:07PM EDT


 

Airport Tracker/Info


-or-


 

Live Flight TrackerFlight Track Log ✈ DAL991 ✈ 01-Apr-2012 ✈ KTYS - KATL

Flight Track Log - Related Links

Times and Time Zones

All times are in EDT time to prevent confusion due to time zone crossing. See the DAL991 flight status page for this flight to view local times or setup timezone preferences in your user account.

Time Position Orientation Groundspeed Altitude Reporting Facility
EDT Latitude Longitude Course Direction KTS MPH feet Rate Location/Type
07:21AM 35.7517 -84.0617 167° South 200 230 4,300  Level Atlanta Center
07:22AM 35.6786 -84.0414 146° Southeast 220 253 7,600 2,820 Climbing Atlanta Center
07:23AM 35.6078 -83.9825 149° Southeast 263 303 10,000 1,800 Climbing Atlanta Center
07:24AM 35.5283 -83.9239 147° Southeast 291 335 11,200 1,980 Climbing Atlanta Center
07:25AM 35.4386 -83.8528 149° Southeast 347 399 14,000 2,700 Climbing Atlanta Center
07:26AM 35.3425 -83.7817 148° Southeast 385 443 16,700 2,580 Climbing Atlanta Center
07:27AM 35.2400 -83.7031 155° Southeast 414 476 19,200 2,100 Climbing Atlanta Center
07:28AM 35.1314 -83.6400 189° South 428 493 20,900 1,380 Climbing Atlanta Center
07:29AM 35.0186 -83.6608 195° South 410 472 22,000 540 Climbing Atlanta Center
07:30AM 34.9186 -83.6942 198° South 400 460 22,000 -120 Level Atlanta Center
07:31AM 34.8061 -83.7378 197° South 414 476 21,800 -900 Descending Atlanta Center
07:32AM 34.6936 -83.7786 198° South 419 482 20,300 -1,440 Descending Atlanta Center
07:33AM 34.5747 -83.8244 197° South 419 482 19,000 -1,800 Descending Atlanta Center
07:34AM 34.4725 -83.8625 197° South 409 471 16,800 -2,400 Descending Atlanta Center
07:35AM 34.3703 -83.9003 197° South 389 448 14,200 -2,100 Descending Atlanta Center
07:36AM 34.2833 -83.9333 195° South 384 442 12,900 -720 Descending Atlanta TRACON
07:37AM 34.1833 -83.9667 220° Southwest 348 400 12,900 -660 Level Atlanta TRACON
07:38AM 34.1167 -84.0333 212° Southwest 298 343 11,600 -1,500 Descending Atlanta TRACON
07:39AM 34.0500 -84.0833 189° South 293 337 10,100 -900 Descending Atlanta TRACON
07:40AM 33.9667 -84.1000 189° South 311 358 9,900 -900 Descending Atlanta TRACON
07:41AM 33.8833 -84.1167 203° Southwest 303 349 8,300 -1,740 Descending Atlanta TRACON
07:42AM 33.8167 -84.1500 189° South 275 316 6,500 -1,440 Descending Atlanta TRACON
07:43AM 33.7333 -84.1667 192° South 278 320 5,500 -780 Descending Atlanta TRACON
07:44AM 33.6667 -84.1833 231° Southwest 272 313 5,000 -600 Descending Atlanta TRACON
07:45AM 33.6333 -84.2333 287° West 232 267 4,300 -1,080 Descending Atlanta TRACON
07:46AM 33.6500 -84.3000 270° West 183 211 2,800 -1,200 Descending Atlanta TRACON
07:47AM 33.6500 -84.3500 270° West 154 177 2,000 -840 Descending Atlanta TRACON
07:48AM 33.6500 -84.4000 270° West 140 161 1,300 -720 Descending Atlanta TRACON